sensor_id;sensor_type;location;lat;lon;timestamp;P1;durP1;ratioP1;P2;durP2;ratioP2
54977;SDS011;40873;47.522;19.106;2022-10-16T00:01:10;11.48;;;5.63;;
54977;SDS011;40873;47.522;19.106;2022-10-16T00:03:43;9.60;;;5.35;;
54977;SDS011;40873;47.522;19.106;2022-10-16T00:06:12;11.48;;;5.75;;
54977;SDS011;40873;47.522;19.106;2022-10-16T00:08:40;11.30;;;5.55;;
54977;SDS011;40873;47.522;19.106;2022-10-16T00:11:11;9.13;;;5.97;;
54977;SDS011;40873;47.522;19.106;2022-10-16T00:13:41;8.38;;;5.35;;
54977;SDS011;40873;47.522;19.106;2022-10-16T00:16:09;9.77;;;5.25;;
54977;SDS011;40873;47.522;19.106;2022-10-16T00:18:37;10.43;;;5.95;;
54977;SDS011;40873;47.522;19.106;2022-10-16T00:21:18;8.23;;;5.25;;
54977;SDS011;40873;47.522;19.106;2022-10-16T00:23:46;10.35;;;5.97;;
54977;SDS011;40873;47.522;19.106;2022-10-16T00:26:17;9.93;;;5.13;;
54977;SDS011;40873;47.522;19.106;2022-10-16T00:28:45;12.55;;;5.18;;
54977;SDS011;40873;47.522;19.106;2022-10-16T00:31:13;15.18;;;5.22;;
54977;SDS011;40873;47.522;19.106;2022-10-16T00:33:41;8.45;;;5.20;;
54977;SDS011;40873;47.522;19.106;2022-10-16T00:36:11;9.95;;;5.20;;
54977;SDS011;40873;47.522;19.106;2022-10-16T00:38:39;8.27;;;4.65;;
54977;SDS011;40873;47.522;19.106;2022-10-16T00:41:07;10.10;;;5.57;;
54977;SDS011;40873;47.522;19.106;2022-10-16T00:51:25;8.25;;;5.45;;
54977;SDS011;40873;47.522;19.106;2022-10-16T00:53:56;9.02;;;5.65;;
54977;SDS011;40873;47.522;19.106;2022-10-16T00:56:24;13.50;;;5.28;;
54977;SDS011;40873;47.522;19.106;2022-10-16T00:58:51;9.80;;;5.63;;
54977;SDS011;40873;47.522;19.106;2022-10-16T01:01:18;9.57;;;4.65;;
54977;SDS011;40873;47.522;19.106;2022-10-16T01:03:45;12.77;;;4.72;;
54977;SDS011;40873;47.522;19.106;2022-10-16T01:06:23;9.30;;;4.68;;
54977;SDS011;40873;47.522;19.106;2022-10-16T01:09:06;12.35;;;5.22;;
54977;SDS011;40873;47.522;19.106;2022-10-16T01:12:25;17.63;;;5.50;;
54977;SDS011;40873;47.522;19.106;2022-10-16T01:17:12;9.17;;;4.87;;
54977;SDS011;40873;47.522;19.106;2022-10-16T01:28:46;8.88;;;5.13;;
54977;SDS011;40873;47.522;19.106;2022-10-16T01:31:15;7.20;;;4.15;;
54977;SDS011;40873;47.522;19.106;2022-10-16T01:33:47;9.10;;;4.57;;
54977;SDS011;40873;47.522;19.106;2022-10-16T01:36:23;7.97;;;4.05;;
54977;SDS011;40873;47.522;19.106;2022-10-16T01:38:55;6.72;;;4.45;;
54977;SDS011;40873;47.522;19.106;2022-10-16T01:41:33;10.98;;;5.38;;
54977;SDS011;40873;47.522;19.106;2022-10-16T01:44:05;9.43;;;5.20;;
54977;SDS011;40873;47.522;19.106;2022-10-16T01:46:39;10.45;;;5.22;;
54977;SDS011;40873;47.522;19.106;2022-10-16T01:49:09;11.48;;;4.55;;
54977;SDS011;40873;47.522;19.106;2022-10-16T01:51:38;9.15;;;4.63;;
54977;SDS011;40873;47.522;19.106;2022-10-16T01:54:09;10.40;;;5.03;;
54977;SDS011;40873;47.522;19.106;2022-10-16T01:56:40;10.77;;;4.47;;
54977;SDS011;40873;47.522;19.106;2022-10-16T01:59:12;7.93;;;4.60;;
54977;SDS011;40873;47.522;19.106;2022-10-16T02:01:44;13.35;;;5.38;;
54977;SDS011;40873;47.522;19.106;2022-10-16T02:04:23;10.10;;;5.23;;
54977;SDS011;40873;47.522;19.106;2022-10-16T02:06:54;7.85;;;5.13;;
54977;SDS011;40873;47.522;19.106;2022-10-16T02:09:21;7.78;;;4.85;;
54977;SDS011;40873;47.522;19.106;2022-10-16T02:11:49;8.02;;;5.28;;
54977;SDS011;40873;47.522;19.106;2022-10-16T02:14:20;8.25;;;5.68;;
54977;SDS011;40873;47.522;19.106;2022-10-16T02:16:50;9.15;;;5.10;;
54977;SDS011;40873;47.522;19.106;2022-10-16T02:19:17;11.27;;;5.32;;
54977;SDS011;40873;47.522;19.106;2022-10-16T02:21:48;8.93;;;5.30;;
54977;SDS011;40873;47.522;19.106;2022-10-16T02:24:22;9.82;;;6.30;;
54977;SDS011;40873;47.522;19.106;2022-10-16T02:29:37;11.15;;;6.30;;
54977;SDS011;40873;47.522;19.106;2022-10-16T02:32:07;11.65;;;6.25;;
54977;SDS011;40873;47.522;19.106;2022-10-16T02:34:36;10.95;;;5.50;;
54977;SDS011;40873;47.522;19.106;2022-10-16T02:37:04;11.77;;;6.18;;
54977;SDS011;40873;47.522;19.106;2022-10-16T02:39:33;11.82;;;5.63;;
54977;SDS011;40873;47.522;19.106;2022-10-16T02:42:01;12.07;;;6.20;;
54977;SDS011;40873;47.522;19.106;2022-10-16T02:44:28;10.48;;;5.40;;
54977;SDS011;40873;47.522;19.106;2022-10-16T02:46:55;9.05;;;5.38;;
54977;SDS011;40873;47.522;19.106;2022-10-16T02:49:21;9.50;;;5.60;;
54977;SDS011;40873;47.522;19.106;2022-10-16T02:51:48;12.85;;;6.15;;
54977;SDS011;40873;47.522;19.106;2022-10-16T02:54:15;16.33;;;7.10;;
54977;SDS011;40873;47.522;19.106;2022-10-16T02:56:42;7.88;;;5.47;;
54977;SDS011;40873;47.522;19.106;2022-10-16T02:59:09;9.40;;;6.43;;
54977;SDS011;40873;47.522;19.106;2022-10-16T03:01:36;8.65;;;5.95;;
54977;SDS011;40873;47.522;19.106;2022-10-16T03:04:03;11.00;;;6.07;;
54977;SDS011;40873;47.522;19.106;2022-10-16T03:06:30;10.10;;;6.30;;
54977;SDS011;40873;47.522;19.106;2022-10-16T03:08:57;10.48;;;5.97;;
54977;SDS011;40873;47.522;19.106;2022-10-16T03:11:24;11.27;;;6.55;;
54977;SDS011;40873;47.522;19.106;2022-10-16T03:13:50;12.25;;;6.40;;
54977;SDS011;40873;47.522;19.106;2022-10-16T03:16:17;10.70;;;6.28;;
54977;SDS011;40873;47.522;19.106;2022-10-16T03:18:47;9.82;;;5.88;;
54977;SDS011;40873;47.522;19.106;2022-10-16T03:21:16;15.38;;;7.05;;
54977;SDS011;40873;47.522;19.106;2022-10-16T03:23:43;11.82;;;6.30;;
54977;SDS011;40873;47.522;19.106;2022-10-16T03:26:10;10.85;;;6.38;;
54977;SDS011;40873;47.522;19.106;2022-10-16T03:28:36;12.02;;;7.00;;
54977;SDS011;40873;47.522;19.106;2022-10-16T03:31:04;10.32;;;5.88;;
54977;SDS011;40873;47.522;19.106;2022-10-16T03:33:30;12.65;;;6.45;;
54977;SDS011;40873;47.522;19.106;2022-10-16T03:35:57;16.25;;;7.63;;
54977;SDS011;40873;47.522;19.106;2022-10-16T03:38:24;9.75;;;6.55;;
54977;SDS011;40873;47.522;19.106;2022-10-16T03:40:54;14.23;;;7.38;;
54977;SDS011;40873;47.522;19.106;2022-10-16T03:43:20;14.60;;;6.88;;
54977;SDS011;40873;47.522;19.106;2022-10-16T03:45:49;11.85;;;7.22;;
54977;SDS011;40873;47.522;19.106;2022-10-16T03:48:17;11.15;;;6.65;;
54977;SDS011;40873;47.522;19.106;2022-10-16T03:50:44;11.23;;;6.28;;
54977;SDS011;40873;47.522;19.106;2022-10-16T03:53:12;10.48;;;6.47;;
54977;SDS011;40873;47.522;19.106;2022-10-16T03:55:41;10.27;;;5.88;;
54977;SDS011;40873;47.522;19.106;2022-10-16T03:58:08;12.98;;;7.43;;
54977;SDS011;40873;47.522;19.106;2022-10-16T04:00:35;12.23;;;7.10;;
54977;SDS011;40873;47.522;19.106;2022-10-16T04:03:02;9.07;;;6.53;;
54977;SDS011;40873;47.522;19.106;2022-10-16T04:05:29;11.77;;;7.28;;
54977;SDS011;40873;47.522;19.106;2022-10-16T04:07:56;13.63;;;7.35;;
54977;SDS011;40873;47.522;19.106;2022-10-16T04:10:23;12.75;;;7.22;;
54977;SDS011;40873;47.522;19.106;2022-10-16T04:12:49;12.52;;;7.15;;
54977;SDS011;40873;47.522;19.106;2022-10-16T04:15:17;11.85;;;6.63;;
54977;SDS011;40873;47.522;19.106;2022-10-16T04:17:43;11.82;;;7.07;;
54977;SDS011;40873;47.522;19.106;2022-10-16T04:20:10;12.70;;;7.03;;
54977;SDS011;40873;47.522;19.106;2022-10-16T04:22:37;11.30;;;7.10;;
54977;SDS011;40873;47.522;19.106;2022-10-16T04:25:04;14.98;;;7.45;;
54977;SDS011;40873;47.522;19.106;2022-10-16T04:27:31;10.40;;;6.75;;
54977;SDS011;40873;47.522;19.106;2022-10-16T04:29:59;9.98;;;6.43;;
54977;SDS011;40873;47.522;19.106;2022-10-16T04:32:26;12.25;;;7.53;;
54977;SDS011;40873;47.522;19.106;2022-10-16T04:34:53;14.02;;;7.07;;
54977;SDS011;40873;47.522;19.106;2022-10-16T04:37:23;12.82;;;7.50;;
54977;SDS011;40873;47.522;19.106;2022-10-16T04:39:52;17.10;;;7.45;;
54977;SDS011;40873;47.522;19.106;2022-10-16T04:42:20;12.70;;;6.45;;
54977;SDS011;40873;47.522;19.106;2022-10-16T04:44:47;10.73;;;7.53;;
54977;SDS011;40873;47.522;19.106;2022-10-16T04:47:14;11.20;;;7.18;;
54977;SDS011;40873;47.522;19.106;2022-10-16T04:49:41;11.52;;;6.78;;
54977;SDS011;40873;47.522;19.106;2022-10-16T04:52:08;14.82;;;7.47;;
54977;SDS011;40873;47.522;19.106;2022-10-16T04:54:36;12.93;;;7.95;;
54977;SDS011;40873;47.522;19.106;2022-10-16T04:57:03;12.75;;;7.53;;
54977;SDS011;40873;47.522;19.106;2022-10-16T04:59:31;13.27;;;7.90;;
54977;SDS011;40873;47.522;19.106;2022-10-16T05:01:58;13.20;;;7.00;;
54977;SDS011;40873;47.522;19.106;2022-10-16T05:04:25;17.75;;;7.88;;
54977;SDS011;40873;47.522;19.106;2022-10-16T05:06:51;15.63;;;7.30;;
54977;SDS011;40873;47.522;19.106;2022-10-16T05:09:18;14.27;;;8.07;;
54977;SDS011;40873;47.522;19.106;2022-10-16T05:11:45;13.57;;;7.68;;
54977;SDS011;40873;47.522;19.106;2022-10-16T05:14:12;15.23;;;7.30;;
54977;SDS011;40873;47.522;19.106;2022-10-16T05:16:39;11.35;;;6.50;;
54977;SDS011;40873;47.522;19.106;2022-10-16T05:19:06;13.82;;;6.65;;
54977;SDS011;40873;47.522;19.106;2022-10-16T05:21:53;11.93;;;6.43;;
54977;SDS011;40873;47.522;19.106;2022-10-16T05:24:20;12.40;;;7.03;;
54977;SDS011;40873;47.522;19.106;2022-10-16T05:26:47;13.65;;;7.40;;
54977;SDS011;40873;47.522;19.106;2022-10-16T05:29:14;14.73;;;7.50;;
54977;SDS011;40873;47.522;19.106;2022-10-16T05:31:41;13.93;;;7.25;;
54977;SDS011;40873;47.522;19.106;2022-10-16T05:34:08;12.95;;;7.28;;
54977;SDS011;40873;47.522;19.106;2022-10-16T05:36:34;15.48;;;7.82;;
54977;SDS011;40873;47.522;19.106;2022-10-16T05:39:02;14.38;;;7.85;;
54977;SDS011;40873;47.522;19.106;2022-10-16T05:41:28;13.75;;;7.47;;
54977;SDS011;40873;47.522;19.106;2022-10-16T05:43:55;15.20;;;7.35;;
54977;SDS011;40873;47.522;19.106;2022-10-16T05:46:22;10.15;;;6.40;;
54977;SDS011;40873;47.522;19.106;2022-10-16T05:48:51;11.85;;;6.65;;
54977;SDS011;40873;47.522;19.106;2022-10-16T05:51:19;11.30;;;6.55;;
54977;SDS011;40873;47.522;19.106;2022-10-16T05:53:46;15.43;;;7.28;;
54977;SDS011;40873;47.522;19.106;2022-10-16T05:56:13;11.38;;;7.38;;
54977;SDS011;40873;47.522;19.106;2022-10-16T05:58:41;13.80;;;7.05;;
54977;SDS011;40873;47.522;19.106;2022-10-16T06:01:12;16.00;;;7.00;;
54977;SDS011;40873;47.522;19.106;2022-10-16T06:03:41;11.98;;;7.75;;
54977;SDS011;40873;47.522;19.106;2022-10-16T06:06:11;13.30;;;7.07;;
54977;SDS011;40873;47.522;19.106;2022-10-16T06:08:40;13.35;;;7.47;;
54977;SDS011;40873;47.522;19.106;2022-10-16T06:11:09;15.52;;;8.13;;
54977;SDS011;40873;47.522;19.106;2022-10-16T06:13:37;15.00;;;6.88;;
54977;SDS011;40873;47.522;19.106;2022-10-16T06:16:05;13.20;;;7.22;;
54977;SDS011;40873;47.522;19.106;2022-10-16T06:18:32;12.25;;;7.30;;
54977;SDS011;40873;47.522;19.106;2022-10-16T06:20:59;12.65;;;7.25;;
54977;SDS011;40873;47.522;19.106;2022-10-16T06:23:28;12.13;;;6.78;;
54977;SDS011;40873;47.522;19.106;2022-10-16T06:26:03;10.82;;;6.30;;
54977;SDS011;40873;47.522;19.106;2022-10-16T06:28:42;11.75;;;6.15;;
54977;SDS011;40873;47.522;19.106;2022-10-16T06:31:09;15.63;;;6.53;;
54977;SDS011;40873;47.522;19.106;2022-10-16T06:33:37;13.73;;;7.03;;
54977;SDS011;40873;47.522;19.106;2022-10-16T06:36:06;12.98;;;6.15;;
54977;SDS011;40873;47.522;19.106;2022-10-16T06:38:35;9.38;;;5.30;;
54977;SDS011;40873;47.522;19.106;2022-10-16T06:41:02;13.35;;;6.50;;
54977;SDS011;40873;47.522;19.106;2022-10-16T06:43:30;10.60;;;6.30;;
54977;SDS011;40873;47.522;19.106;2022-10-16T06:46:04;15.55;;;6.53;;
54977;SDS011;40873;47.522;19.106;2022-10-16T06:48:34;11.55;;;7.20;;
54977;SDS011;40873;47.522;19.106;2022-10-16T06:51:20;16.42;;;8.05;;
54977;SDS011;40873;47.522;19.106;2022-10-16T06:53:50;11.55;;;6.22;;
54977;SDS011;40873;47.522;19.106;2022-10-16T06:56:29;12.55;;;7.18;;
54977;SDS011;40873;47.522;19.106;2022-10-16T06:58:58;9.90;;;6.00;;
54977;SDS011;40873;47.522;19.106;2022-10-16T07:01:25;10.32;;;6.35;;
54977;SDS011;40873;47.522;19.106;2022-10-16T07:03:54;12.50;;;6.75;;
54977;SDS011;40873;47.522;19.106;2022-10-16T07:06:21;10.82;;;6.40;;
54977;SDS011;40873;47.522;19.106;2022-10-16T07:08:50;12.65;;;6.38;;
54977;SDS011;40873;47.522;19.106;2022-10-16T07:11:19;15.13;;;6.60;;
54977;SDS011;40873;47.522;19.106;2022-10-16T07:13:48;12.35;;;5.75;;
54977;SDS011;40873;47.522;19.106;2022-10-16T07:16:21;9.35;;;6.18;;
54977;SDS011;40873;47.522;19.106;2022-10-16T07:18:49;8.80;;;6.00;;
54977;SDS011;40873;47.522;19.106;2022-10-16T07:21:21;10.15;;;6.57;;
54977;SDS011;40873;47.522;19.106;2022-10-16T07:23:53;11.63;;;6.35;;
54977;SDS011;40873;47.522;19.106;2022-10-16T07:26:21;10.30;;;5.45;;
54977;SDS011;40873;47.522;19.106;2022-10-16T07:28:49;14.23;;;6.45;;
54977;SDS011;40873;47.522;19.106;2022-10-16T07:31:17;10.85;;;5.63;;
54977;SDS011;40873;47.522;19.106;2022-10-16T07:33:45;12.00;;;6.38;;
54977;SDS011;40873;47.522;19.106;2022-10-16T07:36:17;10.60;;;5.68;;
54977;SDS011;40873;47.522;19.106;2022-10-16T07:38:46;9.93;;;5.85;;
54977;SDS011;40873;47.522;19.106;2022-10-16T07:41:14;8.93;;;5.50;;
54977;SDS011;40873;47.522;19.106;2022-10-16T07:43:46;10.98;;;6.50;;
54977;SDS011;40873;47.522;19.106;2022-10-16T07:46:15;11.15;;;5.45;;
54977;SDS011;40873;47.522;19.106;2022-10-16T07:48:43;11.23;;;6.00;;
54977;SDS011;40873;47.522;19.106;2022-10-16T07:51:17;14.98;;;5.38;;
54977;SDS011;40873;47.522;19.106;2022-10-16T07:53:45;10.57;;;5.97;;
54977;SDS011;40873;47.522;19.106;2022-10-16T07:56:13;9.77;;;5.70;;
54977;SDS011;40873;47.522;19.106;2022-10-16T07:58:41;11.45;;;6.18;;
54977;SDS011;40873;47.522;19.106;2022-10-16T08:01:10;19.58;;;6.18;;
54977;SDS011;40873;47.522;19.106;2022-10-16T08:03:44;12.50;;;5.90;;
54977;SDS011;40873;47.522;19.106;2022-10-16T08:06:12;11.40;;;6.85;;
54977;SDS011;40873;47.522;19.106;2022-10-16T08:08:40;11.13;;;6.30;;
54977;SDS011;40873;47.522;19.106;2022-10-16T08:11:07;10.43;;;6.22;;
54977;SDS011;40873;47.522;19.106;2022-10-16T08:13:34;9.50;;;5.38;;
54977;SDS011;40873;47.522;19.106;2022-10-16T08:16:01;12.38;;;6.07;;
54977;SDS011;40873;47.522;19.106;2022-10-16T08:18:30;12.52;;;5.90;;
54977;SDS011;40873;47.522;19.106;2022-10-16T08:20:57;9.48;;;5.70;;
54977;SDS011;40873;47.522;19.106;2022-10-16T08:23:25;9.48;;;6.55;;
54977;SDS011;40873;47.522;19.106;2022-10-16T08:25:54;10.15;;;6.40;;
54977;SDS011;40873;47.522;19.106;2022-10-16T08:28:22;13.13;;;6.72;;
54977;SDS011;40873;47.522;19.106;2022-10-16T08:30:49;11.13;;;6.38;;
54977;SDS011;40873;47.522;19.106;2022-10-16T08:33:16;10.43;;;5.45;;
54977;SDS011;40873;47.522;19.106;2022-10-16T08:35:49;12.32;;;6.47;;
54977;SDS011;40873;47.522;19.106;2022-10-16T08:38:20;9.32;;;5.88;;
54977;SDS011;40873;47.522;19.106;2022-10-16T08:40:50;9.77;;;6.55;;
54977;SDS011;40873;47.522;19.106;2022-10-16T08:48:27;14.37;;;5.90;;
54977;SDS011;40873;47.522;19.106;2022-10-16T08:51:01;7.85;;;5.47;;
54977;SDS011;40873;47.522;19.106;2022-10-16T08:53:38;9.93;;;5.53;;
54977;SDS011;40873;47.522;19.106;2022-10-16T08:56:09;10.55;;;5.70;;
54977;SDS011;40873;47.522;19.106;2022-10-16T08:58:36;8.93;;;5.75;;
54977;SDS011;40873;47.522;19.106;2022-10-16T09:01:04;10.52;;;5.30;;
54977;SDS011;40873;47.522;19.106;2022-10-16T09:03:54;9.63;;;6.03;;
54977;SDS011;40873;47.522;19.106;2022-10-16T09:06:46;10.10;;;6.03;;
54977;SDS011;40873;47.522;19.106;2022-10-16T09:12:40;8.20;;;5.00;;
54977;SDS011;40873;47.522;19.106;2022-10-16T09:15:29;10.40;;;6.07;;
54977;SDS011;40873;47.522;19.106;2022-10-16T09:18:33;10.35;;;5.82;;
54977;SDS011;40873;47.522;19.106;2022-10-16T09:21:16;9.43;;;5.68;;
54977;SDS011;40873;47.522;19.106;2022-10-16T09:23:48;10.70;;;6.43;;
54977;SDS011;40873;47.522;19.106;2022-10-16T09:26:15;12.15;;;5.70;;
54977;SDS011;40873;47.522;19.106;2022-10-16T09:28:45;12.35;;;7.13;;
54977;SDS011;40873;47.522;19.106;2022-10-16T09:31:15;11.23;;;5.35;;
54977;SDS011;40873;47.522;19.106;2022-10-16T09:33:46;8.90;;;5.93;;
54977;SDS011;40873;47.522;19.106;2022-10-16T09:36:16;9.57;;;5.82;;
54977;SDS011;40873;47.522;19.106;2022-10-16T09:38:44;12.30;;;5.63;;
54977;SDS011;40873;47.522;19.106;2022-10-16T09:41:18;10.25;;;5.78;;
54977;SDS011;40873;47.522;19.106;2022-10-16T09:48:53;11.25;;;6.15;;
54977;SDS011;40873;47.522;19.106;2022-10-16T09:51:24;8.65;;;5.47;;
54977;SDS011;40873;47.522;19.106;2022-10-16T09:53:59;10.90;;;6.50;;
54977;SDS011;40873;47.522;19.106;2022-10-16T09:56:31;11.32;;;5.60;;
54977;SDS011;40873;47.522;19.106;2022-10-16T09:59:01;9.63;;;5.60;;
54977;SDS011;40873;47.522;19.106;2022-10-16T10:01:36;9.52;;;5.65;;
54977;SDS011;40873;47.522;19.106;2022-10-16T10:04:05;9.48;;;5.03;;
54977;SDS011;40873;47.522;19.106;2022-10-16T10:06:34;9.30;;;5.18;;
54977;SDS011;40873;47.522;19.106;2022-10-16T10:09:06;10.55;;;5.75;;
54977;SDS011;40873;47.522;19.106;2022-10-16T10:14:52;7.47;;;5.47;;
54977;SDS011;40873;47.522;19.106;2022-10-16T10:17:22;10.20;;;5.75;;
54977;SDS011;40873;47.522;19.106;2022-10-16T10:19:55;9.63;;;5.65;;
54977;SDS011;40873;47.522;19.106;2022-10-16T10:33:27;10.27;;;5.30;;
54977;SDS011;40873;47.522;19.106;2022-10-16T10:36:20;12.23;;;5.32;;
54977;SDS011;40873;47.522;19.106;2022-10-16T10:50:36;9.77;;;4.43;;
54977;SDS011;40873;47.522;19.106;2022-10-16T10:55:54;7.07;;;4.90;;
54977;SDS011;40873;47.522;19.106;2022-10-16T11:01:48;8.10;;;4.57;;
54977;SDS011;40873;47.522;19.106;2022-10-16T11:04:27;8.68;;;4.40;;
54977;SDS011;40873;47.522;19.106;2022-10-16T11:07:04;6.93;;;4.00;;
54977;SDS011;40873;47.522;19.106;2022-10-16T11:09:40;11.80;;;4.50;;
54977;SDS011;40873;47.522;19.106;2022-10-16T11:12:12;11.40;;;4.93;;
54977;SDS011;40873;47.522;19.106;2022-10-16T11:14:49;8.25;;;4.90;;
54977;SDS011;40873;47.522;19.106;2022-10-16T11:17:38;7.85;;;4.47;;
54977;SDS011;40873;47.522;19.106;2022-10-16T11:20:28;5.88;;;3.97;;
54977;SDS011;40873;47.522;19.106;2022-10-16T11:25:33;5.47;;;3.72;;
54977;SDS011;40873;47.522;19.106;2022-10-16T11:30:56;6.05;;;4.03;;
54977;SDS011;40873;47.522;19.106;2022-10-16T11:36:26;9.05;;;4.40;;
54977;SDS011;40873;47.522;19.106;2022-10-16T11:39:17;6.63;;;4.53;;
54977;SDS011;40873;47.522;19.106;2022-10-16T11:41:51;8.90;;;4.03;;
54977;SDS011;40873;47.522;19.106;2022-10-16T11:53:18;7.00;;;3.83;;
54977;SDS011;40873;47.522;19.106;2022-10-16T11:55:49;6.38;;;3.90;;
54977;SDS011;40873;47.522;19.106;2022-10-16T11:58:20;8.35;;;3.80;;
54977;SDS011;40873;47.522;19.106;2022-10-16T12:06:40;6.75;;;3.53;;
54977;SDS011;40873;47.522;19.106;2022-10-16T12:09:29;6.03;;;3.90;;
54977;SDS011;40873;47.522;19.106;2022-10-16T12:12:00;20.75;;;3.92;;
54977;SDS011;40873;47.522;19.106;2022-10-16T12:14:35;8.35;;;3.33;;
54977;SDS011;40873;47.522;19.106;2022-10-16T12:17:26;5.75;;;3.50;;
54977;SDS011;40873;47.522;19.106;2022-10-16T12:20:21;5.47;;;3.22;;
54977;SDS011;40873;47.522;19.106;2022-10-16T12:25:29;6.88;;;3.10;;
54977;SDS011;40873;47.522;19.106;2022-10-16T12:30:32;8.15;;;3.72;;
54977;SDS011;40873;47.522;19.106;2022-10-16T12:33:23;6.68;;;3.50;;
54977;SDS011;40873;47.522;19.106;2022-10-16T12:36:00;8.48;;;3.08;;
54977;SDS011;40873;47.522;19.106;2022-10-16T12:38:33;7.20;;;3.47;;
54977;SDS011;40873;47.522;19.106;2022-10-16T12:41:06;6.10;;;3.28;;
54977;SDS011;40873;47.522;19.106;2022-10-16T12:43:36;8.65;;;3.55;;
54977;SDS011;40873;47.522;19.106;2022-10-16T12:48:37;4.72;;;3.08;;
54977;SDS011;40873;47.522;19.106;2022-10-16T12:56:42;5.22;;;3.28;;
54977;SDS011;40873;47.522;19.106;2022-10-16T13:22:13;6.05;;;3.53;;
54977;SDS011;40873;47.522;19.106;2022-10-16T13:27:56;5.30;;;3.60;;
54977;SDS011;40873;47.522;19.106;2022-10-16T13:30:28;5.57;;;3.03;;
54977;SDS011;40873;47.522;19.106;2022-10-16T13:36:02;6.70;;;3.20;;
54977;SDS011;40873;47.522;19.106;2022-10-16T13:38:34;6.13;;;3.13;;
54977;SDS011;40873;47.522;19.106;2022-10-16T13:41:03;5.63;;;3.38;;
54977;SDS011;40873;47.522;19.106;2022-10-16T13:43:41;8.65;;;3.70;;
54977;SDS011;40873;47.522;19.106;2022-10-16T13:46:12;7.60;;;2.78;;
54977;SDS011;40873;47.522;19.106;2022-10-16T13:49:00;5.10;;;3.25;;
54977;SDS011;40873;47.522;19.106;2022-10-16T13:51:29;5.28;;;2.95;;
54977;SDS011;40873;47.522;19.106;2022-10-16T13:53:57;5.68;;;3.25;;
54977;SDS011;40873;47.522;19.106;2022-10-16T13:56:29;6.70;;;3.38;;
54977;SDS011;40873;47.522;19.106;2022-10-16T13:58:58;4.93;;;3.20;;
54977;SDS011;40873;47.522;19.106;2022-10-16T14:01:31;5.35;;;3.15;;
54977;SDS011;40873;47.522;19.106;2022-10-16T14:04:05;7.70;;;3.00;;
54977;SDS011;40873;47.522;19.106;2022-10-16T14:06:35;8.07;;;3.20;;
54977;SDS011;40873;47.522;19.106;2022-10-16T14:11:42;5.97;;;3.03;;
54977;SDS011;40873;47.522;19.106;2022-10-16T14:14:13;6.10;;;3.50;;
54977;SDS011;40873;47.522;19.106;2022-10-16T14:16:42;5.35;;;3.20;;
54977;SDS011;40873;47.522;19.106;2022-10-16T14:19:24;6.30;;;2.95;;
54977;SDS011;40873;47.522;19.106;2022-10-16T14:21:53;5.70;;;2.75;;
54977;SDS011;40873;47.522;19.106;2022-10-16T14:26:57;7.20;;;3.65;;
54977;SDS011;40873;47.522;19.106;2022-10-16T14:29:25;5.72;;;3.00;;
54977;SDS011;40873;47.522;19.106;2022-10-16T14:31:57;4.53;;;2.70;;
54977;SDS011;40873;47.522;19.106;2022-10-16T14:34:35;5.05;;;2.83;;
54977;SDS011;40873;47.522;19.106;2022-10-16T14:37:21;5.88;;;2.80;;
54977;SDS011;40873;47.522;19.106;2022-10-16T14:39:54;5.65;;;3.15;;
54977;SDS011;40873;47.522;19.106;2022-10-16T14:42:24;6.38;;;2.90;;
54977;SDS011;40873;47.522;19.106;2022-10-16T14:44:52;5.20;;;3.20;;
54977;SDS011;40873;47.522;19.106;2022-10-16T14:47:23;6.22;;;2.75;;
54977;SDS011;40873;47.522;19.106;2022-10-16T14:49:53;4.68;;;2.97;;
54977;SDS011;40873;47.522;19.106;2022-10-16T14:52:22;7.47;;;2.88;;
54977;SDS011;40873;47.522;19.106;2022-10-16T14:54:49;4.00;;;2.80;;
54977;SDS011;40873;47.522;19.106;2022-10-16T14:57:21;4.53;;;2.83;;
54977;SDS011;40873;47.522;19.106;2022-10-16T14:59:51;5.38;;;3.45;;
54977;SDS011;40873;47.522;19.106;2022-10-16T15:04:48;5.90;;;2.97;;
54977;SDS011;40873;47.522;19.106;2022-10-16T15:07:15;6.03;;;2.78;;
54977;SDS011;40873;47.522;19.106;2022-10-16T15:09:42;5.80;;;3.50;;
54977;SDS011;40873;47.522;19.106;2022-10-16T15:12:14;5.97;;;3.53;;
54977;SDS011;40873;47.522;19.106;2022-10-16T15:14:42;7.03;;;3.45;;
54977;SDS011;40873;47.522;19.106;2022-10-16T15:17:10;6.30;;;3.40;;
54977;SDS011;40873;47.522;19.106;2022-10-16T15:19:37;8.63;;;3.58;;
54977;SDS011;40873;47.522;19.106;2022-10-16T15:22:04;5.28;;;3.10;;
54977;SDS011;40873;47.522;19.106;2022-10-16T15:24:31;5.93;;;4.03;;
54977;SDS011;40873;47.522;19.106;2022-10-16T15:26:58;5.88;;;3.70;;
54977;SDS011;40873;47.522;19.106;2022-10-16T15:29:25;5.40;;;3.25;;
54977;SDS011;40873;47.522;19.106;2022-10-16T15:31:51;6.13;;;3.33;;
54977;SDS011;40873;47.522;19.106;2022-10-16T15:34:18;7.22;;;3.72;;
54977;SDS011;40873;47.522;19.106;2022-10-16T15:36:46;7.32;;;3.97;;
54977;SDS011;40873;47.522;19.106;2022-10-16T15:39:15;13.38;;;3.95;;
54977;SDS011;40873;47.522;19.106;2022-10-16T15:41:44;7.88;;;3.72;;
54977;SDS011;40873;47.522;19.106;2022-10-16T15:44:17;7.32;;;4.00;;
54977;SDS011;40873;47.522;19.106;2022-10-16T15:46:44;10.77;;;4.25;;
54977;SDS011;40873;47.522;19.106;2022-10-16T15:49:11;10.20;;;3.45;;
54977;SDS011;40873;47.522;19.106;2022-10-16T15:51:39;6.22;;;3.50;;
54977;SDS011;40873;47.522;19.106;2022-10-16T15:54:07;10.18;;;3.88;;
54977;SDS011;40873;47.522;19.106;2022-10-16T15:56:37;5.53;;;3.53;;
54977;SDS011;40873;47.522;19.106;2022-10-16T15:59:04;9.13;;;4.30;;
54977;SDS011;40873;47.522;19.106;2022-10-16T16:01:32;6.03;;;3.75;;
54977;SDS011;40873;47.522;19.106;2022-10-16T16:04:02;6.47;;;3.88;;
54977;SDS011;40873;47.522;19.106;2022-10-16T16:06:40;5.78;;;3.85;;
54977;SDS011;40873;47.522;19.106;2022-10-16T16:09:11;8.82;;;3.78;;
54977;SDS011;40873;47.522;19.106;2022-10-16T16:11:40;11.80;;;4.07;;
54977;SDS011;40873;47.522;19.106;2022-10-16T16:14:07;10.43;;;4.25;;
54977;SDS011;40873;47.522;19.106;2022-10-16T16:16:37;7.90;;;4.43;;
54977;SDS011;40873;47.522;19.106;2022-10-16T16:19:05;8.80;;;4.50;;
54977;SDS011;40873;47.522;19.106;2022-10-16T16:21:37;8.02;;;4.90;;
54977;SDS011;40873;47.522;19.106;2022-10-16T16:24:05;6.95;;;4.60;;
54977;SDS011;40873;47.522;19.106;2022-10-16T16:26:35;8.05;;;5.20;;
54977;SDS011;40873;47.522;19.106;2022-10-16T16:29:06;7.10;;;4.68;;
54977;SDS011;40873;47.522;19.106;2022-10-16T16:31:33;8.32;;;4.40;;
54977;SDS011;40873;47.522;19.106;2022-10-16T16:34:01;13.73;;;5.25;;
54977;SDS011;40873;47.522;19.106;2022-10-16T16:36:28;8.60;;;4.93;;
54977;SDS011;40873;47.522;19.106;2022-10-16T16:38:56;10.77;;;4.72;;
54977;SDS011;40873;47.522;19.106;2022-10-16T16:41:27;10.25;;;5.10;;
54977;SDS011;40873;47.522;19.106;2022-10-16T16:43:55;9.23;;;5.13;;
54977;SDS011;40873;47.522;19.106;2022-10-16T16:46:27;5.63;;;4.28;;
54977;SDS011;40873;47.522;19.106;2022-10-16T16:48:54;9.75;;;5.18;;
54977;SDS011;40873;47.522;19.106;2022-10-16T16:51:21;8.73;;;5.22;;
54977;SDS011;40873;47.522;19.106;2022-10-16T16:53:49;17.08;;;6.47;;
54977;SDS011;40873;47.522;19.106;2022-10-16T16:56:18;13.15;;;6.25;;
54977;SDS011;40873;47.522;19.106;2022-10-16T16:58:48;18.45;;;5.35;;
54977;SDS011;40873;47.522;19.106;2022-10-16T17:01:17;10.68;;;5.05;;
54977;SDS011;40873;47.522;19.106;2022-10-16T17:03:47;14.50;;;6.13;;
54977;SDS011;40873;47.522;19.106;2022-10-16T17:06:17;12.85;;;5.68;;
54977;SDS011;40873;47.522;19.106;2022-10-16T17:08:47;8.05;;;5.50;;